sensor_id;sensor_type;location;lat;lon;timestamp;P1;durP1;ratioP1;P2;durP2;ratioP2
11422;SDS011;5768;51.476;7.210;2023-10-19T00:04:04;4.40;;;4.03;;
11422;SDS011;5768;51.476;7.210;2023-10-19T00:09:08;4.38;;;3.97;;
11422;SDS011;5768;51.476;7.210;2023-10-19T00:14:11;4.20;;;3.85;;
11422;SDS011;5768;51.476;7.210;2023-10-19T00:19:17;4.50;;;4.10;;
11422;SDS011;5768;51.476;7.210;2023-10-19T00:24:22;4.32;;;3.92;;
11422;SDS011;5768;51.476;7.210;2023-10-19T00:29:25;3.75;;;3.45;;
11422;SDS011;5768;51.476;7.210;2023-10-19T00:34:40;4.32;;;4.00;;
11422;SDS011;5768;51.476;7.210;2023-10-19T00:39:45;4.72;;;4.32;;
11422;SDS011;5768;51.476;7.210;2023-10-19T00:44:54;4.55;;;4.15;;
11422;SDS011;5768;51.476;7.210;2023-10-19T00:50:02;4.97;;;4.47;;
11422;SDS011;5768;51.476;7.210;2023-10-19T00:55:14;3.92;;;3.53;;
11422;SDS011;5768;51.476;7.210;2023-10-19T01:00:19;4.72;;;4.32;;
11422;SDS011;5768;51.476;7.210;2023-10-19T01:05:32;4.85;;;4.35;;
11422;SDS011;5768;51.476;7.210;2023-10-19T01:10:38;3.97;;;3.67;;
11422;SDS011;5768;51.476;7.210;2023-10-19T01:15:41;4.25;;;3.95;;
11422;SDS011;5768;51.476;7.210;2023-10-19T01:20:43;4.60;;;3.80;;
11422;SDS011;5768;51.476;7.210;2023-10-19T01:25:52;4.72;;;4.10;;
11422;SDS011;5768;51.476;7.210;2023-10-19T01:31:08;3.88;;;3.58;;
11422;SDS011;5768;51.476;7.210;2023-10-19T01:36:15;4.03;;;3.63;;
11422;SDS011;5768;51.476;7.210;2023-10-19T01:41:29;4.00;;;3.60;;
11422;SDS011;5768;51.476;7.210;2023-10-19T01:46:33;4.15;;;3.85;;
11422;SDS011;5768;51.476;7.210;2023-10-19T01:51:36;4.85;;;4.05;;
11422;SDS011;5768;51.476;7.210;2023-10-19T01:56:41;4.22;;;3.83;;
11422;SDS011;5768;51.476;7.210;2023-10-19T02:01:43;4.78;;;3.78;;
11422;SDS011;5768;51.476;7.210;2023-10-19T02:06:46;4.50;;;4.10;;
11422;SDS011;5768;51.476;7.210;2023-10-19T02:11:54;4.63;;;3.83;;
11422;SDS011;5768;51.476;7.210;2023-10-19T02:16:58;4.50;;;4.10;;
11422;SDS011;5768;51.476;7.210;2023-10-19T02:22:04;3.85;;;3.53;;
11422;SDS011;5768;51.476;7.210;2023-10-19T02:27:09;6.85;;;4.32;;
11422;SDS011;5768;51.476;7.210;2023-10-19T02:32:12;6.03;;;3.45;;
11422;SDS011;5768;51.476;7.210;2023-10-19T02:37:18;3.30;;;3.00;;
11422;SDS011;5768;51.476;7.210;2023-10-19T02:42:22;3.38;;;3.03;;
11422;SDS011;5768;51.476;7.210;2023-10-19T02:47:25;4.38;;;3.17;;
11422;SDS011;5768;51.476;7.210;2023-10-19T02:52:29;3.83;;;2.85;;
11422;SDS011;5768;51.476;7.210;2023-10-19T02:57:32;2.97;;;2.67;;
11422;SDS011;5768;51.476;7.210;2023-10-19T03:02:35;2.80;;;2.50;;
11422;SDS011;5768;51.476;7.210;2023-10-19T03:07:38;2.55;;;2.25;;
11422;SDS011;5768;51.476;7.210;2023-10-19T03:12:44;3.22;;;2.00;;
11422;SDS011;5768;51.476;7.210;2023-10-19T03:17:47;2.50;;;1.92;;
11422;SDS011;5768;51.476;7.210;2023-10-19T03:22:49;3.05;;;2.30;;
11422;SDS011;5768;51.476;7.210;2023-10-19T03:27:53;2.95;;;1.83;;
11422;SDS011;5768;51.476;7.210;2023-10-19T03:32:56;3.05;;;2.10;;
11422;SDS011;5768;51.476;7.210;2023-10-19T03:37:59;2.40;;;1.90;;
11422;SDS011;5768;51.476;7.210;2023-10-19T03:43:09;3.17;;;1.80;;
11422;SDS011;5768;51.476;7.210;2023-10-19T03:48:18;2.60;;;2.10;;
11422;SDS011;5768;51.476;7.210;2023-10-19T03:53:26;2.15;;;1.95;;
11422;SDS011;5768;51.476;7.210;2023-10-19T03:58:30;2.63;;;1.95;;
11422;SDS011;5768;51.476;7.210;2023-10-19T04:03:34;2.95;;;1.60;;
11422;SDS011;5768;51.476;7.210;2023-10-19T04:08:37;1.90;;;1.65;;
11422;SDS011;5768;51.476;7.210;2023-10-19T04:13:41;2.42;;;1.83;;
11422;SDS011;5768;51.476;7.210;2023-10-19T04:18:43;2.17;;;1.42;;
11422;SDS011;5768;51.476;7.210;2023-10-19T04:23:45;2.70;;;1.60;;
11422;SDS011;5768;51.476;7.210;2023-10-19T04:28:49;2.15;;;1.45;;
11422;SDS011;5768;51.476;7.210;2023-10-19T04:33:51;1.88;;;1.40;;
11422;SDS011;5768;51.476;7.210;2023-10-19T04:38:54;1.92;;;1.55;;
11422;SDS011;5768;51.476;7.210;2023-10-19T04:43:58;2.85;;;1.63;;
11422;SDS011;5768;51.476;7.210;2023-10-19T04:49:01;1.88;;;1.58;;
11422;SDS011;5768;51.476;7.210;2023-10-19T04:54:03;2.03;;;1.58;;
11422;SDS011;5768;51.476;7.210;2023-10-19T04:59:10;4.88;;;2.85;;
11422;SDS011;5768;51.476;7.210;2023-10-19T05:04:12;2.03;;;1.55;;
11422;SDS011;5768;51.476;7.210;2023-10-19T05:09:17;4.03;;;2.13;;
11422;SDS011;5768;51.476;7.210;2023-10-19T05:14:21;4.03;;;2.28;;
11422;SDS011;5768;51.476;7.210;2023-10-19T05:19:23;2.53;;;2.15;;
11422;SDS011;5768;51.476;7.210;2023-10-19T05:24:25;3.35;;;2.00;;
11422;SDS011;5768;51.476;7.210;2023-10-19T05:29:30;2.55;;;2.00;;
11422;SDS011;5768;51.476;7.210;2023-10-19T05:34:34;3.30;;;1.70;;
11422;SDS011;5768;51.476;7.210;2023-10-19T05:39:37;4.72;;;2.10;;
11422;SDS011;5768;51.476;7.210;2023-10-19T05:44:40;3.28;;;1.90;;
11422;SDS011;5768;51.476;7.210;2023-10-19T05:49:44;3.13;;;2.03;;
11422;SDS011;5768;51.476;7.210;2023-10-19T05:54:48;2.92;;;1.90;;
11422;SDS011;5768;51.476;7.210;2023-10-19T05:59:52;3.90;;;1.75;;
11422;SDS011;5768;51.476;7.210;2023-10-19T06:04:54;4.95;;;2.30;;
11422;SDS011;5768;51.476;7.210;2023-10-19T06:09:57;4.57;;;1.95;;
11422;SDS011;5768;51.476;7.210;2023-10-19T06:15:05;3.50;;;1.90;;
11422;SDS011;5768;51.476;7.210;2023-10-19T06:20:11;5.18;;;2.30;;
11422;SDS011;5768;51.476;7.210;2023-10-19T06:25:24;4.60;;;2.13;;
11422;SDS011;5768;51.476;7.210;2023-10-19T06:30:27;3.60;;;2.15;;
11422;SDS011;5768;51.476;7.210;2023-10-19T06:35:31;5.68;;;2.63;;
11422;SDS011;5768;51.476;7.210;2023-10-19T06:40:37;4.85;;;2.40;;
11422;SDS011;5768;51.476;7.210;2023-10-19T06:45:41;5.80;;;2.50;;
11422;SDS011;5768;51.476;7.210;2023-10-19T06:50:46;5.07;;;2.10;;
11422;SDS011;5768;51.476;7.210;2023-10-19T06:55:48;4.25;;;2.55;;
11422;SDS011;5768;51.476;7.210;2023-10-19T07:00:52;5.28;;;3.08;;
11422;SDS011;5768;51.476;7.210;2023-10-19T07:06:00;4.13;;;2.22;;
11422;SDS011;5768;51.476;7.210;2023-10-19T07:11:02;3.92;;;2.40;;
11422;SDS011;5768;51.476;7.210;2023-10-19T07:16:07;4.20;;;2.30;;
11422;SDS011;5768;51.476;7.210;2023-10-19T07:21:13;4.15;;;2.00;;
11422;SDS011;5768;51.476;7.210;2023-10-19T07:26:17;2.22;;;1.98;;
11422;SDS011;5768;51.476;7.210;2023-10-19T07:31:23;6.20;;;3.85;;
11422;SDS011;5768;51.476;7.210;2023-10-19T07:36:27;4.07;;;2.20;;
11422;SDS011;5768;51.476;7.210;2023-10-19T07:41:30;2.88;;;1.90;;
11422;SDS011;5768;51.476;7.210;2023-10-19T07:46:38;1.88;;;1.60;;
11422;SDS011;5768;51.476;7.210;2023-10-19T07:51:41;2.80;;;1.75;;
11422;SDS011;5768;51.476;7.210;2023-10-19T07:56:50;2.97;;;1.98;;
11422;SDS011;5768;51.476;7.210;2023-10-19T08:01:53;4.13;;;2.15;;
11422;SDS011;5768;51.476;7.210;2023-10-19T08:06:56;2.67;;;2.28;;
11422;SDS011;5768;51.476;7.210;2023-10-19T08:11:59;3.60;;;1.90;;
11422;SDS011;5768;51.476;7.210;2023-10-19T08:17:05;4.53;;;2.30;;
11422;SDS011;5768;51.476;7.210;2023-10-19T08:22:10;5.95;;;2.25;;
11422;SDS011;5768;51.476;7.210;2023-10-19T08:27:14;4.68;;;2.13;;
11422;SDS011;5768;51.476;7.210;2023-10-19T08:32:19;3.42;;;1.95;;
11422;SDS011;5768;51.476;7.210;2023-10-19T08:37:21;4.75;;;2.00;;
11422;SDS011;5768;51.476;7.210;2023-10-19T08:42:24;4.63;;;3.28;;
11422;SDS011;5768;51.476;7.210;2023-10-19T08:47:29;3.85;;;1.90;;
11422;SDS011;5768;51.476;7.210;2023-10-19T08:52:32;2.65;;;1.42;;
11422;SDS011;5768;51.476;7.210;2023-10-19T08:57:36;2.92;;;2.10;;
11422;SDS011;5768;51.476;7.210;2023-10-19T09:02:40;7.07;;;3.97;;
11422;SDS011;5768;51.476;7.210;2023-10-19T09:07:42;1.55;;;1.38;;
11422;SDS011;5768;51.476;7.210;2023-10-19T09:12:52;3.17;;;2.10;;
11422;SDS011;5768;51.476;7.210;2023-10-19T09:18:12;3.45;;;2.20;;
11422;SDS011;5768;51.476;7.210;2023-10-19T09:23:16;4.90;;;1.77;;
11422;SDS011;5768;51.476;7.210;2023-10-19T09:28:19;10.60;;;3.17;;
11422;SDS011;5768;51.476;7.210;2023-10-19T09:33:23;7.55;;;3.25;;
11422;SDS011;5768;51.476;7.210;2023-10-19T09:38:29;4.68;;;2.10;;
11422;SDS011;5768;51.476;7.210;2023-10-19T09:43:33;5.53;;;2.00;;
11422;SDS011;5768;51.476;7.210;2023-10-19T09:48:41;4.90;;;2.50;;
11422;SDS011;5768;51.476;7.210;2023-10-19T09:53:49;5.63;;;2.53;;
11422;SDS011;5768;51.476;7.210;2023-10-19T09:59:05;4.35;;;2.13;;
11422;SDS011;5768;51.476;7.210;2023-10-19T10:04:27;3.35;;;1.83;;
11422;SDS011;5768;51.476;7.210;2023-10-19T10:09:34;4.95;;;2.03;;
11422;SDS011;5768;51.476;7.210;2023-10-19T10:14:52;3.15;;;2.00;;
11422;SDS011;5768;51.476;7.210;2023-10-19T10:25:34;3.92;;;2.00;;
11422;SDS011;5768;51.476;7.210;2023-10-19T10:30:37;4.60;;;2.08;;
11422;SDS011;5768;51.476;7.210;2023-10-19T10:36:16;3.75;;;2.05;;
11422;SDS011;5768;51.476;7.210;2023-10-19T10:41:20;5.15;;;1.83;;
11422;SDS011;5768;51.476;7.210;2023-10-19T10:46:25;2.97;;;1.70;;
11422;SDS011;5768;51.476;7.210;2023-10-19T10:51:31;4.18;;;1.67;;
11422;SDS011;5768;51.476;7.210;2023-10-19T10:56:39;4.20;;;1.90;;
11422;SDS011;5768;51.476;7.210;2023-10-19T11:01:44;4.55;;;1.60;;
11422;SDS011;5768;51.476;7.210;2023-10-19T11:06:50;3.80;;;1.52;;
11422;SDS011;5768;51.476;7.210;2023-10-19T11:11:55;4.70;;;2.17;;
11422;SDS011;5768;51.476;7.210;2023-10-19T11:17:11;5.65;;;1.80;;
11422;SDS011;5768;51.476;7.210;2023-10-19T11:22:17;5.85;;;1.98;;
11422;SDS011;5768;51.476;7.210;2023-10-19T11:27:23;5.30;;;2.10;;
11422;SDS011;5768;51.476;7.210;2023-10-19T11:32:35;7.30;;;1.95;;
11422;SDS011;5768;51.476;7.210;2023-10-19T11:37:48;5.80;;;2.15;;
11422;SDS011;5768;51.476;7.210;2023-10-19T11:42:52;5.38;;;2.28;;
11422;SDS011;5768;51.476;7.210;2023-10-19T11:47:57;6.30;;;2.00;;
11422;SDS011;5768;51.476;7.210;2023-10-19T11:53:01;5.15;;;1.77;;
11422;SDS011;5768;51.476;7.210;2023-10-19T11:58:03;5.07;;;2.00;;
11422;SDS011;5768;51.476;7.210;2023-10-19T12:03:05;5.38;;;2.00;;
11422;SDS011;5768;51.476;7.210;2023-10-19T12:08:09;5.10;;;1.88;;
11422;SDS011;5768;51.476;7.210;2023-10-19T12:13:11;5.32;;;2.03;;
11422;SDS011;5768;51.476;7.210;2023-10-19T12:18:14;5.82;;;2.00;;
11422;SDS011;5768;51.476;7.210;2023-10-19T12:23:17;2.67;;;1.48;;
11422;SDS011;5768;51.476;7.210;2023-10-19T12:28:23;5.22;;;2.17;;
11422;SDS011;5768;51.476;7.210;2023-10-19T12:33:26;6.18;;;2.05;;
11422;SDS011;5768;51.476;7.210;2023-10-19T12:38:30;7.55;;;2.22;;
11422;SDS011;5768;51.476;7.210;2023-10-19T12:43:33;5.30;;;1.90;;
11422;SDS011;5768;51.476;7.210;2023-10-19T12:48:35;6.50;;;2.00;;
11422;SDS011;5768;51.476;7.210;2023-10-19T12:53:39;4.22;;;1.90;;
11422;SDS011;5768;51.476;7.210;2023-10-19T12:58:41;5.53;;;2.03;;
11422;SDS011;5768;51.476;7.210;2023-10-19T13:03:44;5.47;;;1.90;;
11422;SDS011;5768;51.476;7.210;2023-10-19T13:08:49;8.02;;;2.42;;
11422;SDS011;5768;51.476;7.210;2023-10-19T13:13:51;6.88;;;2.15;;
11422;SDS011;5768;51.476;7.210;2023-10-19T13:18:53;5.05;;;2.20;;
11422;SDS011;5768;51.476;7.210;2023-10-19T13:23:57;5.38;;;2.72;;
11422;SDS011;5768;51.476;7.210;2023-10-19T13:29:00;6.30;;;2.10;;
11422;SDS011;5768;51.476;7.210;2023-10-19T13:34:04;6.95;;;2.67;;
11422;SDS011;5768;51.476;7.210;2023-10-19T13:39:11;5.07;;;2.28;;
11422;SDS011;5768;51.476;7.210;2023-10-19T13:44:16;4.45;;;2.10;;
11422;SDS011;5768;51.476;7.210;2023-10-19T13:49:21;4.10;;;2.00;;
11422;SDS011;5768;51.476;7.210;2023-10-19T13:54:24;6.95;;;2.22;;
11422;SDS011;5768;51.476;7.210;2023-10-19T13:59:28;8.45;;;3.10;;
11422;SDS011;5768;51.476;7.210;2023-10-19T14:04:31;3.60;;;2.10;;
11422;SDS011;5768;51.476;7.210;2023-10-19T14:09:35;9.05;;;6.43;;
11422;SDS011;5768;51.476;7.210;2023-10-19T14:14:37;6.18;;;2.35;;
11422;SDS011;5768;51.476;7.210;2023-10-19T14:19:39;6.82;;;3.08;;
11422;SDS011;5768;51.476;7.210;2023-10-19T14:24:46;5.80;;;2.65;;
11422;SDS011;5768;51.476;7.210;2023-10-19T14:29:49;10.50;;;8.25;;
11422;SDS011;5768;51.476;7.210;2023-10-19T14:34:52;4.93;;;2.40;;
11422;SDS011;5768;51.476;7.210;2023-10-19T14:39:56;7.28;;;3.13;;
11422;SDS011;5768;51.476;7.210;2023-10-19T14:44:59;6.72;;;2.33;;
11422;SDS011;5768;51.476;7.210;2023-10-19T14:50:01;5.47;;;2.13;;
11422;SDS011;5768;51.476;7.210;2023-10-19T14:55:06;7.85;;;3.28;;
11422;SDS011;5768;51.476;7.210;2023-10-19T15:00:11;4.82;;;2.38;;
11422;SDS011;5768;51.476;7.210;2023-10-19T15:05:24;5.57;;;2.40;;
11422;SDS011;5768;51.476;7.210;2023-10-19T15:10:31;6.05;;;2.75;;
11422;SDS011;5768;51.476;7.210;2023-10-19T15:15:34;7.75;;;2.30;;
11422;SDS011;5768;51.476;7.210;2023-10-19T15:20:38;6.35;;;2.17;;
11422;SDS011;5768;51.476;7.210;2023-10-19T15:25:43;5.18;;;2.38;;
11422;SDS011;5768;51.476;7.210;2023-10-19T15:30:46;7.53;;;3.95;;
11422;SDS011;5768;51.476;7.210;2023-10-19T15:35:49;6.38;;;2.67;;
11422;SDS011;5768;51.476;7.210;2023-10-19T15:40:54;6.32;;;2.40;;
11422;SDS011;5768;51.476;7.210;2023-10-19T15:45:57;5.72;;;2.50;;
11422;SDS011;5768;51.476;7.210;2023-10-19T15:51:04;5.22;;;2.67;;
11422;SDS011;5768;51.476;7.210;2023-10-19T15:56:09;5.53;;;2.65;;
11422;SDS011;5768;51.476;7.210;2023-10-19T16:01:16;4.90;;;2.47;;
11422;SDS011;5768;51.476;7.210;2023-10-19T16:06:22;5.60;;;2.70;;
11422;SDS011;5768;51.476;7.210;2023-10-19T16:11:28;4.93;;;2.80;;
11422;SDS011;5768;51.476;7.210;2023-10-19T16:16:33;6.18;;;2.40;;
11422;SDS011;5768;51.476;7.210;2023-10-19T16:21:39;7.15;;;2.83;;
11422;SDS011;5768;51.476;7.210;2023-10-19T16:26:46;6.28;;;2.67;;
11422;SDS011;5768;51.476;7.210;2023-10-19T16:31:51;5.13;;;2.53;;
11422;SDS011;5768;51.476;7.210;2023-10-19T16:36:59;5.43;;;2.70;;
11422;SDS011;5768;51.476;7.210;2023-10-19T16:42:07;7.43;;;3.00;;
11422;SDS011;5768;51.476;7.210;2023-10-19T16:47:12;6.63;;;2.60;;
11422;SDS011;5768;51.476;7.210;2023-10-19T16:52:17;6.57;;;2.78;;
11422;SDS011;5768;51.476;7.210;2023-10-19T16:57:21;6.70;;;3.10;;
11422;SDS011;5768;51.476;7.210;2023-10-19T17:02:24;5.72;;;3.50;;
11422;SDS011;5768;51.476;7.210;2023-10-19T17:07:27;8.18;;;3.20;;
11422;SDS011;5768;51.476;7.210;2023-10-19T17:12:31;8.20;;;3.85;;
11422;SDS011;5768;51.476;7.210;2023-10-19T17:17:36;5.97;;;3.65;;
11422;SDS011;5768;51.476;7.210;2023-10-19T17:22:39;7.65;;;3.85;;
11422;SDS011;5768;51.476;7.210;2023-10-19T17:27:45;7.68;;;4.35;;
11422;SDS011;5768;51.476;7.210;2023-10-19T17:32:52;6.95;;;4.03;;
11422;SDS011;5768;51.476;7.210;2023-10-19T17:37:58;10.05;;;4.80;;
11422;SDS011;5768;51.476;7.210;2023-10-19T17:43:02;8.18;;;4.20;;
11422;SDS011;5768;51.476;7.210;2023-10-19T17:48:07;9.25;;;4.15;;
11422;SDS011;5768;51.476;7.210;2023-10-19T17:53:10;7.50;;;4.32;;
11422;SDS011;5768;51.476;7.210;2023-10-19T17:58:17;8.73;;;5.10;;
11422;SDS011;5768;51.476;7.210;2023-10-19T18:03:22;9.57;;;5.32;;
11422;SDS011;5768;51.476;7.210;2023-10-19T18:08:25;10.15;;;6.00;;
11422;SDS011;5768;51.476;7.210;2023-10-19T18:13:30;7.50;;;5.28;;
11422;SDS011;5768;51.476;7.210;2023-10-19T18:18:33;7.38;;;5.38;;
11422;SDS011;5768;51.476;7.210;2023-10-19T18:23:36;7.93;;;5.55;;
11422;SDS011;5768;51.476;7.210;2023-10-19T18:28:40;9.82;;;5.93;;
11422;SDS011;5768;51.476;7.210;2023-10-19T18:33:44;8.13;;;5.90;;
11422;SDS011;5768;51.476;7.210;2023-10-19T18:38:47;6.75;;;5.13;;
11422;SDS011;5768;51.476;7.210;2023-10-19T18:43:51;6.20;;;5.57;;
11422;SDS011;5768;51.476;7.210;2023-10-19T18:48:54;8.52;;;5.95;;
11422;SDS011;5768;51.476;7.210;2023-10-19T18:53:59;5.78;;;5.25;;
11422;SDS011;5768;51.476;7.210;2023-10-19T18:59:05;8.45;;;5.57;;
11422;SDS011;5768;51.476;7.210;2023-10-19T19:04:08;6.53;;;5.47;;
11422;SDS011;5768;51.476;7.210;2023-10-19T19:09:11;6.93;;;5.75;;
11422;SDS011;5768;51.476;7.210;2023-10-19T19:14:15;8.98;;;5.70;;
11422;SDS011;5768;51.476;7.210;2023-10-19T19:19:17;7.75;;;5.80;;
11422;SDS011;5768;51.476;7.210;2023-10-19T19:24:20;8.38;;;5.50;;
11422;SDS011;5768;51.476;7.210;2023-10-19T19:29:23;8.07;;;6.10;;
11422;SDS011;5768;51.476;7.210;2023-10-19T19:34:26;8.10;;;5.93;;
11422;SDS011;5768;51.476;7.210;2023-10-19T19:39:28;6.95;;;6.22;;
11422;SDS011;5768;51.476;7.210;2023-10-19T19:44:32;6.68;;;6.03;;
11422;SDS011;5768;51.476;7.210;2023-10-19T19:49:34;7.15;;;6.15;;
11422;SDS011;5768;51.476;7.210;2023-10-19T19:54:37;6.90;;;6.20;;
11422;SDS011;5768;51.476;7.210;2023-10-19T19:59:41;7.50;;;6.80;;
11422;SDS011;5768;51.476;7.210;2023-10-19T20:04:46;7.55;;;6.72;;
11422;SDS011;5768;51.476;7.210;2023-10-19T20:09:48;8.07;;;6.53;;
11422;SDS011;5768;51.476;7.210;2023-10-19T20:14:54;14.23;;;12.45;;
11422;SDS011;5768;51.476;7.210;2023-10-19T20:19:56;7.03;;;6.32;;
11422;SDS011;5768;51.476;7.210;2023-10-19T20:24:59;7.15;;;6.22;;
11422;SDS011;5768;51.476;7.210;2023-10-19T20:30:03;7.25;;;6.18;;
11422;SDS011;5768;51.476;7.210;2023-10-19T20:35:08;7.28;;;6.55;;
11422;SDS011;5768;51.476;7.210;2023-10-19T20:40:13;8.25;;;6.18;;
11422;SDS011;5768;51.476;7.210;2023-10-19T20:45:22;7.28;;;6.57;;
11422;SDS011;5768;51.476;7.210;2023-10-19T20:50:26;6.68;;;6.03;;
11422;SDS011;5768;51.476;7.210;2023-10-19T20:55:28;7.35;;;6.40;;
11422;SDS011;5768;51.476;7.210;2023-10-19T21:00:32;8.45;;;6.55;;
11422;SDS011;5768;51.476;7.210;2023-10-19T21:05:35;8.02;;;7.00;;
11422;SDS011;5768;51.476;7.210;2023-10-19T21:10:39;6.57;;;5.97;;
11422;SDS011;5768;51.476;7.210;2023-10-19T21:15:43;7.85;;;6.35;;
11422;SDS011;5768;51.476;7.210;2023-10-19T21:20:45;7.25;;;6.53;;
11422;SDS011;5768;51.476;7.210;2023-10-19T21:25:48;6.20;;;5.60;;
11422;SDS011;5768;51.476;7.210;2023-10-19T21:30:51;6.32;;;5.72;;
11422;SDS011;5768;51.476;7.210;2023-10-19T21:35:54;7.18;;;6.47;;
11422;SDS011;5768;51.476;7.210;2023-10-19T21:40:56;6.95;;;6.07;;
11422;SDS011;5768;51.476;7.210;2023-10-19T21:46:01;8.00;;;6.53;;
11422;SDS011;5768;51.476;7.210;2023-10-19T21:51:04;7.47;;;6.00;;
11422;SDS011;5768;51.476;7.210;2023-10-19T21:56:07;6.95;;;6.22;;
11422;SDS011;5768;51.476;7.210;2023-10-19T22:01:11;9.77;;;6.00;;
11422;SDS011;5768;51.476;7.210;2023-10-19T22:06:20;9.38;;;6.38;;
11422;SDS011;5768;51.476;7.210;2023-10-19T22:11:22;6.70;;;6.05;;
11422;SDS011;5768;51.476;7.210;2023-10-19T22:16:28;7.18;;;6.22;;
11422;SDS011;5768;51.476;7.210;2023-10-19T22:21:30;6.70;;;5.85;;
11422;SDS011;5768;51.476;7.210;2023-10-19T22:26:36;7.22;;;6.28;;
11422;SDS011;5768;51.476;7.210;2023-10-19T22:31:41;8.38;;;5.93;;
11422;SDS011;5768;51.476;7.210;2023-10-19T22:36:43;6.68;;;5.95;;
11422;SDS011;5768;51.476;7.210;2023-10-19T22:41:46;6.85;;;6.22;;
11422;SDS011;5768;51.476;7.210;2023-10-19T22:46:53;6.80;;;6.07;;
11422;SDS011;5768;51.476;7.210;2023-10-19T22:51:55;6.53;;;5.68;;
11422;SDS011;5768;51.476;7.210;2023-10-19T22:56:58;6.60;;;5.90;;
11422;SDS011;5768;51.476;7.210;2023-10-19T23:02:02;7.50;;;5.97;;
11422;SDS011;5768;51.476;7.210;2023-10-19T23:07:07;6.72;;;5.97;;
11422;SDS011;5768;51.476;7.210;2023-10-19T23:12:09;6.32;;;5.72;;
11422;SDS011;5768;51.476;7.210;2023-10-19T23:17:19;6.97;;;5.82;;
11422;SDS011;5768;51.476;7.210;2023-10-19T23:22:29;7.47;;;6.68;;
11422;SDS011;5768;51.476;7.210;2023-10-19T23:27:32;6.45;;;5.85;;
11422;SDS011;5768;51.476;7.210;2023-10-19T23:32:36;6.75;;;6.05;;
11422;SDS011;5768;51.476;7.210;2023-10-19T23:37:40;5.88;;;5.40;;
11422;SDS011;5768;51.476;7.210;2023-10-19T23:42:43;6.97;;;5.70;;
11422;SDS011;5768;51.476;7.210;2023-10-19T23:47:47;7.05;;;6.35;;
11422;SDS011;5768;51.476;7.210;2023-10-19T23:52:49;6.85;;;6.25;;
11422;SDS011;5768;51.476;7.210;2023-10-19T23:57:53;6.78;;;6.18;;
